sensor_id;sensor_type;location;lat;lon;timestamp;pressure;altitude;pressure_sealevel;temperature;humidity
21824;BME280;11074;48.596;9.238;2022-07-22T00:01:27;98667.34;;;19.45;88.47
21824;BME280;11074;48.596;9.238;2022-07-22T00:03:52;98669.41;;;19.34;88.75
21824;BME280;11074;48.596;9.238;2022-07-22T00:06:18;98667.03;;;19.27;89.84
21824;BME280;11074;48.596;9.238;2022-07-22T00:08:44;98671.38;;;19.47;88.59
21824;BME280;11074;48.596;9.238;2022-07-22T00:11:10;98662.19;;;19.75;87.75
21824;BME280;11074;48.596;9.238;2022-07-22T00:13:36;98661.56;;;19.65;87.33
21824;BME280;11074;48.596;9.238;2022-07-22T00:16:02;98662.78;;;19.40;88.48
21824;BME280;11074;48.596;9.238;2022-07-22T00:18:28;98662.44;;;19.47;87.96
21824;BME280;11074;48.596;9.238;2022-07-22T00:20:55;98656.94;;;19.65;86.96
21824;BME280;11074;48.596;9.238;2022-07-22T00:23:21;98652.94;;;19.76;86.43
21824;BME280;11074;48.596;9.238;2022-07-22T00:25:47;98654.16;;;19.84;85.61
21824;BME280;11074;48.596;9.238;2022-07-22T00:28:12;98656.31;;;19.55;87.04
21824;BME280;11074;48.596;9.238;2022-07-22T00:30:38;98654.00;;;19.29;88.17
21824;BME280;11074;48.596;9.238;2022-07-22T00:33:04;98655.88;;;18.97;89.50
21824;BME280;11074;48.596;9.238;2022-07-22T00:35:30;98652.88;;;18.98;90.03
21824;BME280;11074;48.596;9.238;2022-07-22T00:37:56;98649.44;;;18.93;90.04
21824;BME280;11074;48.596;9.238;2022-07-22T00:40:21;98652.59;;;18.81;90.53
21824;BME280;11074;48.596;9.238;2022-07-22T00:42:47;98652.97;;;18.74;90.85
21824;BME280;11074;48.596;9.238;2022-07-22T00:45:14;98652.53;;;18.67;91.07
21824;BME280;11074;48.596;9.238;2022-07-22T00:47:40;98663.44;;;18.81;91.37
21824;BME280;11074;48.596;9.238;2022-07-22T00:50:07;98651.88;;;18.57;91.91
21824;BME280;11074;48.596;9.238;2022-07-22T00:52:34;98657.78;;;18.77;91.30
21824;BME280;11074;48.596;9.238;2022-07-22T00:55:00;98661.47;;;18.68;91.66
21824;BME280;11074;48.596;9.238;2022-07-22T00:57:27;98650.47;;;18.78;91.41
21824;BME280;11074;48.596;9.238;2022-07-22T00:59:54;98649.59;;;18.83;91.32
21824;BME280;11074;48.596;9.238;2022-07-22T01:02:20;98653.34;;;18.68;92.14
21824;BME280;11074;48.596;9.238;2022-07-22T01:04:46;98646.78;;;18.50;92.94
21824;BME280;11074;48.596;9.238;2022-07-22T01:07:11;98649.22;;;18.52;93.23
21824;BME280;11074;48.596;9.238;2022-07-22T01:09:37;98643.84;;;18.47;93.27
21824;BME280;11074;48.596;9.238;2022-07-22T01:12:03;98651.22;;;18.65;92.35
21824;BME280;11074;48.596;9.238;2022-07-22T01:14:29;98646.38;;;18.81;91.51
21824;BME280;11074;48.596;9.238;2022-07-22T01:16:55;98649.16;;;18.75;91.51
21824;BME280;11074;48.596;9.238;2022-07-22T01:19:20;98642.75;;;18.48;92.58
21824;BME280;11074;48.596;9.238;2022-07-22T01:21:46;98642.69;;;18.53;92.58
21824;BME280;11074;48.596;9.238;2022-07-22T01:24:12;98648.59;;;18.36;93.17
21824;BME280;11074;48.596;9.238;2022-07-22T01:26:38;98654.19;;;18.21;94.21
21824;BME280;11074;48.596;9.238;2022-07-22T01:29:04;98644.97;;;18.64;92.37
21824;BME280;11074;48.596;9.238;2022-07-22T01:31:30;98637.00;;;18.92;90.87
21824;BME280;11074;48.596;9.238;2022-07-22T01:33:56;98649.50;;;18.69;91.22
21824;BME280;11074;48.596;9.238;2022-07-22T01:36:22;98641.47;;;18.64;91.53
21824;BME280;11074;48.596;9.238;2022-07-22T01:38:48;98650.41;;;18.64;90.82
21824;BME280;11074;48.596;9.238;2022-07-22T01:41:14;98655.00;;;18.22;93.83
21824;BME280;11074;48.596;9.238;2022-07-22T01:43:39;98649.47;;;18.08;94.79
21824;BME280;11074;48.596;9.238;2022-07-22T01:46:05;98647.88;;;18.07;95.18
21824;BME280;11074;48.596;9.238;2022-07-22T01:48:31;98656.72;;;17.89;95.92
21824;BME280;11074;48.596;9.238;2022-07-22T01:50:57;98648.53;;;17.94;96.45
21824;BME280;11074;48.596;9.238;2022-07-22T01:53:23;98638.75;;;17.74;97.08
21824;BME280;11074;48.596;9.238;2022-07-22T01:55:49;98647.16;;;17.96;96.39
21824;BME280;11074;48.596;9.238;2022-07-22T01:58:15;98647.41;;;18.00;95.94
21824;BME280;11074;48.596;9.238;2022-07-22T02:00:42;98641.28;;;17.89;96.94
21824;BME280;11074;48.596;9.238;2022-07-22T02:03:08;98635.91;;;18.32;94.13
21824;BME280;11074;48.596;9.238;2022-07-22T02:05:37;98642.88;;;18.38;93.36
21824;BME280;11074;48.596;9.238;2022-07-22T02:08:08;98645.06;;;18.36;93.59
21824;BME280;11074;48.596;9.238;2022-07-22T02:10:35;98633.66;;;18.39;93.71
21824;BME280;11074;48.596;9.238;2022-07-22T02:13:02;98650.09;;;18.66;91.14
21824;BME280;11074;48.596;9.238;2022-07-22T02:15:29;98643.16;;;18.79;89.94
21824;BME280;11074;48.596;9.238;2022-07-22T02:17:56;98640.00;;;18.90;89.70
21824;BME280;11074;48.596;9.238;2022-07-22T02:20:22;98636.69;;;18.93;89.30
21824;BME280;11074;48.596;9.238;2022-07-22T02:22:48;98643.78;;;19.08;88.47
21824;BME280;11074;48.596;9.238;2022-07-22T02:25:14;98635.66;;;19.08;88.46
21824;BME280;11074;48.596;9.238;2022-07-22T02:27:41;98632.88;;;19.13;88.26
21824;BME280;11074;48.596;9.238;2022-07-22T02:30:08;98633.91;;;18.80;88.28
21824;BME280;11074;48.596;9.238;2022-07-22T02:32:35;98639.63;;;18.59;89.51
21824;BME280;11074;48.596;9.238;2022-07-22T02:35:02;98637.13;;;18.63;89.95
21824;BME280;11074;48.596;9.238;2022-07-22T02:37:27;98638.16;;;18.48;90.16
21824;BME280;11074;48.596;9.238;2022-07-22T02:39:53;98624.22;;;18.36;91.02
21824;BME280;11074;48.596;9.238;2022-07-22T02:42:19;98633.44;;;18.35;90.97
21824;BME280;11074;48.596;9.238;2022-07-22T02:44:44;98630.94;;;18.20;92.09
21824;BME280;11074;48.596;9.238;2022-07-22T02:47:12;98633.63;;;18.20;91.57
21824;BME280;11074;48.596;9.238;2022-07-22T02:49:38;98622.41;;;18.50;90.40
21824;BME280;11074;48.596;9.238;2022-07-22T02:52:04;98628.88;;;18.73;89.42
21824;BME280;11074;48.596;9.238;2022-07-22T02:54:30;98623.47;;;18.54;89.69
21824;BME280;11074;48.596;9.238;2022-07-22T02:56:55;98627.66;;;18.65;89.81
21824;BME280;11074;48.596;9.238;2022-07-22T02:59:21;98628.66;;;18.88;88.26
21824;BME280;11074;48.596;9.238;2022-07-22T03:01:47;98631.28;;;18.93;87.83
21824;BME280;11074;48.596;9.238;2022-07-22T03:04:13;98627.56;;;18.89;88.85
21824;BME280;11074;48.596;9.238;2022-07-22T03:06:38;98634.00;;;18.56;89.29
21824;BME280;11074;48.596;9.238;2022-07-22T03:09:04;98631.78;;;18.58;89.02
21824;BME280;11074;48.596;9.238;2022-07-22T03:11:30;98633.75;;;18.52;88.74
21824;BME280;11074;48.596;9.238;2022-07-22T03:13:55;98647.25;;;18.57;89.08
21824;BME280;11074;48.596;9.238;2022-07-22T03:16:21;98641.00;;;18.14;90.65
21824;BME280;11074;48.596;9.238;2022-07-22T03:18:47;98633.94;;;17.95;92.22
21824;BME280;11074;48.596;9.238;2022-07-22T03:21:13;98629.66;;;17.89;92.68
21824;BME280;11074;48.596;9.238;2022-07-22T03:23:38;98631.28;;;18.13;90.77
21824;BME280;11074;48.596;9.238;2022-07-22T03:26:04;98638.81;;;18.16;90.74
21824;BME280;11074;48.596;9.238;2022-07-22T03:28:30;98636.81;;;18.03;90.89
21824;BME280;11074;48.596;9.238;2022-07-22T03:30:56;98642.13;;;17.61;93.33
21824;BME280;11074;48.596;9.238;2022-07-22T03:33:25;98642.50;;;17.78;93.09
21824;BME280;11074;48.596;9.238;2022-07-22T03:35:50;98639.09;;;17.91;92.02
21824;BME280;11074;48.596;9.238;2022-07-22T03:38:19;98642.09;;;17.90;91.35
21824;BME280;11074;48.596;9.238;2022-07-22T03:40:45;98642.22;;;17.51;93.02
21824;BME280;11074;48.596;9.238;2022-07-22T03:43:11;98646.25;;;17.48;94.23
21824;BME280;11074;48.596;9.238;2022-07-22T03:45:36;98645.16;;;17.54;92.91
21824;BME280;11074;48.596;9.238;2022-07-22T03:48:03;98641.97;;;17.76;91.69
21824;BME280;11074;48.596;9.238;2022-07-22T03:50:29;98645.75;;;17.75;91.38
21824;BME280;11074;48.596;9.238;2022-07-22T03:52:55;98646.53;;;17.81;90.89
21824;BME280;11074;48.596;9.238;2022-07-22T03:55:20;98647.78;;;17.31;93.72
21824;BME280;11074;48.596;9.238;2022-07-22T03:57:46;98650.72;;;17.01;95.65
21824;BME280;11074;48.596;9.238;2022-07-22T04:00:12;98653.50;;;16.90;96.39
21824;BME280;11074;48.596;9.238;2022-07-22T04:02:38;98647.41;;;16.75;97.51
21824;BME280;11074;48.596;9.238;2022-07-22T04:05:04;98658.19;;;16.75;98.39
21824;BME280;11074;48.596;9.238;2022-07-22T04:07:30;98650.44;;;16.68;98.67
21824;BME280;11074;48.596;9.238;2022-07-22T04:09:56;98659.06;;;16.70;98.66
21824;BME280;11074;48.596;9.238;2022-07-22T04:12:36;98647.13;;;16.71;98.94
21824;BME280;11074;48.596;9.238;2022-07-22T04:15:05;98650.44;;;16.68;99.04
21824;BME280;11074;48.596;9.238;2022-07-22T04:17:31;98649.34;;;16.64;99.22
21824;BME280;11074;48.596;9.238;2022-07-22T04:19:57;98649.69;;;16.53;100.00
21824;BME280;11074;48.596;9.238;2022-07-22T04:22:24;98643.06;;;16.79;99.72
21824;BME280;11074;48.596;9.238;2022-07-22T04:24:50;98640.38;;;17.13;97.91
21824;BME280;11074;48.596;9.238;2022-07-22T04:27:16;98638.06;;;17.30;96.37
21824;BME280;11074;48.596;9.238;2022-07-22T04:29:42;98636.00;;;17.22;96.48
21824;BME280;11074;48.596;9.238;2022-07-22T04:32:08;98637.94;;;17.16;95.88
21824;BME280;11074;48.596;9.238;2022-07-22T04:34:33;98637.88;;;17.50;95.17
21824;BME280;11074;48.596;9.238;2022-07-22T04:36:59;98627.88;;;17.79;93.71
21824;BME280;11074;48.596;9.238;2022-07-22T04:39:25;98635.44;;;17.82;93.28
21824;BME280;11074;48.596;9.238;2022-07-22T04:41:52;98625.50;;;17.96;93.33
21824;BME280;11074;48.596;9.238;2022-07-22T04:44:18;98631.00;;;18.34;90.60
21824;BME280;11074;48.596;9.238;2022-07-22T04:46:43;98632.94;;;18.33;90.79
21824;BME280;11074;48.596;9.238;2022-07-22T04:49:10;98626.78;;;18.46;90.41
21824;BME280;11074;48.596;9.238;2022-07-22T04:51:36;98629.63;;;18.60;89.98
21824;BME280;11074;48.596;9.238;2022-07-22T04:54:02;98628.72;;;18.64;89.41
21824;BME280;11074;48.596;9.238;2022-07-22T04:56:30;98629.09;;;18.76;88.92
21824;BME280;11074;48.596;9.238;2022-07-22T04:58:55;98631.94;;;18.85;88.86
21824;BME280;11074;48.596;9.238;2022-07-22T05:01:21;98627.75;;;18.74;88.88
21824;BME280;11074;48.596;9.238;2022-07-22T05:03:47;98622.16;;;18.70;89.17
21824;BME280;11074;48.596;9.238;2022-07-22T05:06:13;98631.78;;;18.76;88.98
21824;BME280;11074;48.596;9.238;2022-07-22T05:08:38;98626.19;;;18.73;89.34
21824;BME280;11074;48.596;9.238;2022-07-22T05:11:04;98619.28;;;18.81;89.22
21824;BME280;11074;48.596;9.238;2022-07-22T05:13:30;98619.13;;;18.72;89.19
21824;BME280;11074;48.596;9.238;2022-07-22T05:15:56;98619.22;;;18.67;89.90
21824;BME280;11074;48.596;9.238;2022-07-22T05:18:22;98620.88;;;18.63;90.09
21824;BME280;11074;48.596;9.238;2022-07-22T05:20:48;98621.69;;;18.63;90.66
21824;BME280;11074;48.596;9.238;2022-07-22T05:23:14;98625.06;;;18.74;90.27
21824;BME280;11074;48.596;9.238;2022-07-22T05:25:40;98626.38;;;18.76;90.36
21824;BME280;11074;48.596;9.238;2022-07-22T05:28:05;98626.44;;;18.71;90.72
21824;BME280;11074;48.596;9.238;2022-07-22T05:30:31;98610.94;;;18.77;90.61
21824;BME280;11074;48.596;9.238;2022-07-22T05:32:57;98621.91;;;18.86;88.79
21824;BME280;11074;48.596;9.238;2022-07-22T05:35:23;98616.84;;;18.79;89.63
21824;BME280;11074;48.596;9.238;2022-07-22T05:37:48;98617.31;;;18.67;90.85
21824;BME280;11074;48.596;9.238;2022-07-22T05:40:14;98617.59;;;18.85;90.19
21824;BME280;11074;48.596;9.238;2022-07-22T05:42:40;98610.63;;;18.97;89.87
21824;BME280;11074;48.596;9.238;2022-07-22T05:45:06;98622.13;;;18.89;90.19
21824;BME280;11074;48.596;9.238;2022-07-22T05:47:32;98616.00;;;18.84;90.74
21824;BME280;11074;48.596;9.238;2022-07-22T05:49:58;98624.00;;;19.07;89.32
21824;BME280;11074;48.596;9.238;2022-07-22T05:52:24;98616.38;;;19.09;89.63
21824;BME280;11074;48.596;9.238;2022-07-22T05:54:49;98616.06;;;19.11;90.35
21824;BME280;11074;48.596;9.238;2022-07-22T05:57:15;98609.78;;;19.15;89.16
21824;BME280;11074;48.596;9.238;2022-07-22T05:59:41;98606.53;;;19.00;89.88
21824;BME280;11074;48.596;9.238;2022-07-22T06:02:07;98612.88;;;19.09;89.24
21824;BME280;11074;48.596;9.238;2022-07-22T06:04:33;98612.94;;;19.04;89.25
21824;BME280;11074;48.596;9.238;2022-07-22T06:06:59;98614.84;;;19.35;88.23
21824;BME280;11074;48.596;9.238;2022-07-22T06:09:26;98602.53;;;19.43;87.52
21824;BME280;11074;48.596;9.238;2022-07-22T06:11:52;98605.59;;;19.55;87.53
21824;BME280;11074;48.596;9.238;2022-07-22T06:14:21;98608.81;;;19.71;86.21
21824;BME280;11074;48.596;9.238;2022-07-22T06:16:46;98608.94;;;19.79;85.83
21824;BME280;11074;48.596;9.238;2022-07-22T06:19:12;98604.72;;;19.87;85.17
21824;BME280;11074;48.596;9.238;2022-07-22T06:21:38;98608.31;;;19.96;85.50
21824;BME280;11074;48.596;9.238;2022-07-22T06:24:05;98611.56;;;19.98;85.16
21824;BME280;11074;48.596;9.238;2022-07-22T06:26:31;98614.88;;;20.09;84.61
21824;BME280;11074;48.596;9.238;2022-07-22T06:28:56;98614.75;;;20.14;85.00
21824;BME280;11074;48.596;9.238;2022-07-22T06:31:22;98607.53;;;20.09;85.43
21824;BME280;11074;48.596;9.238;2022-07-22T06:33:48;98612.03;;;20.14;85.59
21824;BME280;11074;48.596;9.238;2022-07-22T06:36:14;98612.16;;;20.22;84.69
21824;BME280;11074;48.596;9.238;2022-07-22T06:38:40;98605.50;;;20.28;84.77
21824;BME280;11074;48.596;9.238;2022-07-22T06:41:06;98600.88;;;20.29;85.67
21824;BME280;11074;48.596;9.238;2022-07-22T06:43:32;98597.78;;;20.35;85.73
21824;BME280;11074;48.596;9.238;2022-07-22T06:45:58;98597.06;;;20.43;85.93
21824;BME280;11074;48.596;9.238;2022-07-22T06:48:23;98604.88;;;20.45;84.93
21824;BME280;11074;48.596;9.238;2022-07-22T06:50:49;98608.41;;;20.45;85.92
21824;BME280;11074;48.596;9.238;2022-07-22T06:53:19;98612.50;;;20.57;86.74
21824;BME280;11074;48.596;9.238;2022-07-22T06:55:58;98603.22;;;20.58;85.32
21824;BME280;11074;48.596;9.238;2022-07-22T06:58:28;98606.63;;;20.63;85.35
21824;BME280;11074;48.596;9.238;2022-07-22T07:00:55;98602.22;;;20.67;85.55
21824;BME280;11074;48.596;9.238;2022-07-22T07:03:21;98605.22;;;20.66;85.22
21824;BME280;11074;48.596;9.238;2022-07-22T07:05:48;98606.59;;;20.77;84.37
21824;BME280;11074;48.596;9.238;2022-07-22T07:08:14;98600.78;;;20.92;84.31
21824;BME280;11074;48.596;9.238;2022-07-22T07:10:41;98594.06;;;20.89;83.09
21824;BME280;11074;48.596;9.238;2022-07-22T07:13:07;98593.03;;;20.99;82.16
21824;BME280;11074;48.596;9.238;2022-07-22T07:15:33;98593.38;;;21.06;82.24
21824;BME280;11074;48.596;9.238;2022-07-22T07:17:58;98585.94;;;21.11;81.65
21824;BME280;11074;48.596;9.238;2022-07-22T07:20:25;98585.81;;;21.17;82.02
21824;BME280;11074;48.596;9.238;2022-07-22T07:22:51;98579.09;;;21.14;82.53
21824;BME280;11074;48.596;9.238;2022-07-22T07:25:17;98576.84;;;21.16;82.18
21824;BME280;11074;48.596;9.238;2022-07-22T07:27:42;98576.63;;;21.26;81.51
21824;BME280;11074;48.596;9.238;2022-07-22T07:30:09;98578.19;;;21.27;80.85
21824;BME280;11074;48.596;9.238;2022-07-22T07:32:36;98567.69;;;21.34;82.08
21824;BME280;11074;48.596;9.238;2022-07-22T07:35:04;98569.78;;;21.37;81.56
21824;BME280;11074;48.596;9.238;2022-07-22T07:37:31;98559.25;;;21.44;80.86
21824;BME280;11074;48.596;9.238;2022-07-22T07:39:58;98562.31;;;21.51;81.27
21824;BME280;11074;48.596;9.238;2022-07-22T07:42:24;98550.53;;;21.64;81.37
21824;BME280;11074;48.596;9.238;2022-07-22T07:44:50;98545.47;;;21.71;79.83
21824;BME280;11074;48.596;9.238;2022-07-22T07:47:16;98552.16;;;21.65;80.25
21824;BME280;11074;48.596;9.238;2022-07-22T07:49:48;98544.81;;;21.74;80.64
21824;BME280;11074;48.596;9.238;2022-07-22T07:52:16;98553.97;;;21.79;80.56
21824;BME280;11074;48.596;9.238;2022-07-22T07:54:44;98541.78;;;21.76;80.22
21824;BME280;11074;48.596;9.238;2022-07-22T07:57:11;98543.72;;;21.84;79.38
21824;BME280;11074;48.596;9.238;2022-07-22T07:59:38;98545.38;;;21.94;78.10
21824;BME280;11074;48.596;9.238;2022-07-22T08:02:04;98546.84;;;22.00;78.25
21824;BME280;11074;48.596;9.238;2022-07-22T08:04:30;98543.13;;;21.96;78.25
21824;BME280;11074;48.596;9.238;2022-07-22T08:06:56;98543.97;;;22.05;78.32
21824;BME280;11074;48.596;9.238;2022-07-22T08:09:23;98543.34;;;22.08;78.82
21824;BME280;11074;48.596;9.238;2022-07-22T08:11:49;98542.22;;;22.09;78.54
21824;BME280;11074;48.596;9.238;2022-07-22T08:14:15;98533.56;;;22.07;78.66
21824;BME280;11074;48.596;9.238;2022-07-22T08:16:41;98533.91;;;22.14;79.02
21824;BME280;11074;48.596;9.238;2022-07-22T08:19:07;98533.25;;;22.17;78.37
21824;BME280;11074;48.596;9.238;2022-07-22T08:21:33;98534.06;;;22.26;77.83
21824;BME280;11074;48.596;9.238;2022-07-22T08:24:02;98527.81;;;22.34;77.39
21824;BME280;11074;48.596;9.238;2022-07-22T08:26:28;98520.28;;;22.40;76.36
21824;BME280;11074;48.596;9.238;2022-07-22T08:28:54;98518.38;;;22.40;77.48
21824;BME280;11074;48.596;9.238;2022-07-22T08:31:20;98517.72;;;22.52;76.79
21824;BME280;11074;48.596;9.238;2022-07-22T08:33:45;98519.63;;;22.60;75.96
21824;BME280;11074;48.596;9.238;2022-07-22T08:36:11;98518.09;;;22.67;75.70
21824;BME280;11074;48.596;9.238;2022-07-22T08:38:37;98515.03;;;22.69;75.93
21824;BME280;11074;48.596;9.238;2022-07-22T08:41:04;98513.59;;;22.71;75.12
21824;BME280;11074;48.596;9.238;2022-07-22T08:43:34;98519.34;;;22.78;77.24
21824;BME280;11074;48.596;9.238;2022-07-22T08:46:02;98505.22;;;22.85;75.43
21824;BME280;11074;48.596;9.238;2022-07-22T08:48:27;98505.69;;;22.87;75.28
21824;BME280;11074;48.596;9.238;2022-07-22T08:50:53;98498.63;;;22.94;74.18
21824;BME280;11074;48.596;9.238;2022-07-22T08:53:19;98491.06;;;23.00;74.23
21824;BME280;11074;48.596;9.238;2022-07-22T08:55:47;98497.63;;;23.08;74.92
21824;BME280;11074;48.596;9.238;2022-07-22T08:58:14;98481.06;;;23.13;73.80
21824;BME280;11074;48.596;9.238;2022-07-22T09:00:41;98474.03;;;23.12;73.77
21824;BME280;11074;48.596;9.238;2022-07-22T09:03:21;98475.78;;;23.16;73.58
21824;BME280;11074;48.596;9.238;2022-07-22T09:05:52;98474.66;;;23.17;73.21
21824;BME280;11074;48.596;9.238;2022-07-22T09:08:20;98475.13;;;23.19;72.67
21824;BME280;11074;48.596;9.238;2022-07-22T09:10:47;98470.94;;;23.22;73.22
21824;BME280;11074;48.596;9.238;2022-07-22T09:13:15;98475.72;;;23.33;71.77
21824;BME280;11074;48.596;9.238;2022-07-22T09:15:54;98473.13;;;23.45;71.35
21824;BME280;11074;48.596;9.238;2022-07-22T09:18:20;98471.34;;;23.49;71.10
21824;BME280;11074;48.596;9.238;2022-07-22T09:20:47;98476.47;;;23.51;71.47
21824;BME280;11074;48.596;9.238;2022-07-22T09:23:17;98472.94;;;23.50;71.86
21824;BME280;11074;48.596;9.238;2022-07-22T09:25:45;98476.75;;;23.58;71.55
21824;BME280;11074;48.596;9.238;2022-07-22T09:28:15;98470.94;;;23.68;69.42
21824;BME280;11074;48.596;9.238;2022-07-22T09:30:54;98472.81;;;23.76;70.10
21824;BME280;11074;48.596;9.238;2022-07-22T09:33:21;98466.50;;;23.84;69.81
21824;BME280;11074;48.596;9.238;2022-07-22T09:35:49;98468.13;;;23.77;70.26
21824;BME280;11074;48.596;9.238;2022-07-22T09:38:17;98466.66;;;23.79;70.29
21824;BME280;11074;48.596;9.238;2022-07-22T09:40:48;98465.34;;;23.85;69.80
21824;BME280;11074;48.596;9.238;2022-07-22T09:43:19;98458.31;;;23.84;69.55
21824;BME280;11074;48.596;9.238;2022-07-22T09:45:47;98462.72;;;23.97;69.33
21824;BME280;11074;48.596;9.238;2022-07-22T09:48:16;98453.72;;;23.97;69.93
21824;BME280;11074;48.596;9.238;2022-07-22T09:50:43;98447.59;;;24.00;70.07
21824;BME280;11074;48.596;9.238;2022-07-22T09:53:09;98445.53;;;23.97;70.55
21824;BME280;11074;48.596;9.238;2022-07-22T09:55:39;98443.25;;;23.99;69.99
21824;BME280;11074;48.596;9.238;2022-07-22T09:58:06;98436.66;;;24.00;69.98
21824;BME280;11074;48.596;9.238;2022-07-22T10:00:36;98433.56;;;24.10;70.04
21824;BME280;11074;48.596;9.238;2022-07-22T10:03:06;98430.88;;;24.22;68.16
21824;BME280;11074;48.596;9.238;2022-07-22T10:05:38;98426.22;;;24.23;69.23
21824;BME280;11074;48.596;9.238;2022-07-22T10:08:06;98426.94;;;24.32;68.81
21824;BME280;11074;48.596;9.238;2022-07-22T10:10:34;98424.22;;;24.32;68.65
21824;BME280;11074;48.596;9.238;2022-07-22T10:13:03;98414.66;;;24.38;67.86
21824;BME280;11074;48.596;9.238;2022-07-22T10:15:31;98423.41;;;24.31;68.10
21824;BME280;11074;48.596;9.238;2022-07-22T10:18:02;98409.19;;;24.38;67.65
21824;BME280;11074;48.596;9.238;2022-07-22T10:20:30;98416.31;;;24.51;67.35
21824;BME280;11074;48.596;9.238;2022-07-22T10:23:00;98409.44;;;24.78;65.86
21824;BME280;11074;48.596;9.238;2022-07-22T10:25:59;98409.25;;;24.95;64.74
21824;BME280;11074;48.596;9.238;2022-07-22T10:28:37;98399.69;;;25.01;65.79
21824;BME280;11074;48.596;9.238;2022-07-22T10:31:23;98400.94;;;24.91;65.77
21824;BME280;11074;48.596;9.238;2022-07-22T10:33:56;98402.44;;;25.01;65.08
21824;BME280;11074;48.596;9.238;2022-07-22T10:36:39;98394.13;;;25.21;64.54
21824;BME280;11074;48.596;9.238;2022-07-22T10:41:44;98383.72;;;25.39;63.28
21824;BME280;11074;48.596;9.238;2022-07-22T10:44:12;98385.25;;;25.49;62.44
21824;BME280;11074;48.596;9.238;2022-07-22T10:46:54;98390.69;;;25.61;61.86
21824;BME280;11074;48.596;9.238;2022-07-22T10:49:25;98379.88;;;25.64;62.42
21824;BME280;11074;48.596;9.238;2022-07-22T10:55:21;98364.56;;;25.63;63.99
21824;BME280;11074;48.596;9.238;2022-07-22T10:57:47;98367.78;;;25.65;63.40
21824;BME280;11074;48.596;9.238;2022-07-22T11:00:16;98359.44;;;25.62;63.47
21824;BME280;11074;48.596;9.238;2022-07-22T11:02:43;98366.38;;;25.71;61.41
21824;BME280;11074;48.596;9.238;2022-07-22T11:05:09;98356.22;;;25.72;63.14
21824;BME280;11074;48.596;9.238;2022-07-22T11:07:46;98363.00;;;25.90;61.16
21824;BME280;11074;48.596;9.238;2022-07-22T11:10:18;98361.81;;;26.03;62.28
21824;BME280;11074;48.596;9.238;2022-07-22T11:12:46;98359.44;;;26.02;61.98
21824;BME280;11074;48.596;9.238;2022-07-22T11:15:14;98350.53;;;26.05;62.56
21824;BME280;11074;48.596;9.238;2022-07-22T11:17:40;98352.91;;;26.18;62.32
21824;BME280;11074;48.596;9.238;2022-07-22T11:20:11;98346.81;;;26.25;61.04
21824;BME280;11074;48.596;9.238;2022-07-22T11:22:38;98341.16;;;26.33;60.19
21824;BME280;11074;48.596;9.238;2022-07-22T11:25:08;98341.97;;;26.34;60.06
21824;BME280;11074;48.596;9.238;2022-07-22T11:27:34;98335.56;;;26.58;58.26
21824;BME280;11074;48.596;9.238;2022-07-22T11:30:05;98330.78;;;26.70;54.93
21824;BME280;11074;48.596;9.238;2022-07-22T11:32:42;98323.03;;;26.88;58.46
21824;BME280;11074;48.596;9.238;2022-07-22T11:35:12;98320.53;;;26.98;58.00
21824;BME280;11074;48.596;9.238;2022-07-22T11:37:38;98316.00;;;27.06;59.05
21824;BME280;11074;48.596;9.238;2022-07-22T11:40:07;98314.47;;;27.24;58.71
21824;BME280;11074;48.596;9.238;2022-07-22T11:42:33;98305.88;;;27.26;57.45
21824;BME280;11074;48.596;9.238;2022-07-22T11:45:00;98295.97;;;27.21;57.49
21824;BME280;11074;48.596;9.238;2022-07-22T11:47:26;98301.31;;;27.33;56.38
21824;BME280;11074;48.596;9.238;2022-07-22T11:49:52;98293.22;;;27.21;57.70
21824;BME280;11074;48.596;9.238;2022-07-22T11:52:18;98303.56;;;27.43;57.19
21824;BME280;11074;48.596;9.238;2022-07-22T11:54:45;98299.09;;;27.54;56.85
21824;BME280;11074;48.596;9.238;2022-07-22T11:57:13;98295.13;;;27.71;55.37
21824;BME280;11074;48.596;9.238;2022-07-22T11:59:40;98290.00;;;27.89;55.29
21824;BME280;11074;48.596;9.238;2022-07-22T12:02:07;98284.06;;;28.06;55.61
21824;BME280;11074;48.596;9.238;2022-07-22T12:04:36;98288.13;;;28.12;53.89
21824;BME280;11074;48.596;9.238;2022-07-22T12:07:03;98278.72;;;28.13;54.75
21824;BME280;11074;48.596;9.238;2022-07-22T12:09:35;98278.53;;;28.25;52.16
21824;BME280;11074;48.596;9.238;2022-07-22T12:12:03;98273.31;;;28.39;52.94
21824;BME280;11074;48.596;9.238;2022-07-22T12:14:33;98275.88;;;28.51;53.70
21824;BME280;11074;48.596;9.238;2022-07-22T12:17:08;98263.22;;;28.47;54.26
21824;BME280;11074;48.596;9.238;2022-07-22T12:19:39;98259.66;;;28.46;54.27
21824;BME280;11074;48.596;9.238;2022-07-22T12:22:25;98251.38;;;28.65;52.85
21824;BME280;11074;48.596;9.238;2022-07-22T12:25:02;98244.13;;;28.80;51.75
21824;BME280;11074;48.596;9.238;2022-07-22T12:27:28;98242.97;;;28.81;53.61
21824;BME280;11074;48.596;9.238;2022-07-22T12:29:55;98237.63;;;28.92;50.46
21824;BME280;11074;48.596;9.238;2022-07-22T12:32:26;98233.44;;;29.01;50.56
21824;BME280;11074;48.596;9.238;2022-07-22T12:37:27;98222.38;;;29.24;51.45
21824;BME280;11074;48.596;9.238;2022-07-22T12:40:21;98222.47;;;29.31;50.27
21824;BME280;11074;48.596;9.238;2022-07-22T12:43:08;98221.91;;;29.48;50.49
21824;BME280;11074;48.596;9.238;2022-07-22T12:45:37;98226.75;;;29.58;48.89
21824;BME280;11074;48.596;9.238;2022-07-22T12:50:33;98219.47;;;29.76;48.44
21824;BME280;11074;48.596;9.238;2022-07-22T12:53:04;98217.22;;;29.82;47.91
21824;BME280;11074;48.596;9.238;2022-07-22T12:55:56;98214.91;;;29.87;49.19
21824;BME280;11074;48.596;9.238;2022-07-22T12:58:30;98214.38;;;29.78;49.72
21824;BME280;11074;48.596;9.238;2022-07-22T13:01:00;98209.22;;;29.73;50.09
21824;BME280;11074;48.596;9.238;2022-07-22T13:03:28;98206.94;;;29.79;49.37
21824;BME280;11074;48.596;9.238;2022-07-22T13:05:58;98209.41;;;29.87;47.62
21824;BME280;11074;48.596;9.238;2022-07-22T13:08:26;98204.34;;;29.93;46.09
21824;BME280;11074;48.596;9.238;2022-07-22T13:10:53;98207.22;;;30.03;48.28
21824;BME280;11074;48.596;9.238;2022-07-22T13:13:23;98200.34;;;29.87;49.26